EK1111 KLAX-KSAN
Flight info
| Callsign | EK1111 |
|---|---|
| Flight time | 0h 21m |
| Altitude | 13000 |
| Route | LAXX1 MZB |
| Aircraft | B77W/H-SDE1E2E3FGHIJ2J3J4J5M1RWXY/LB1D1 |
Departure
| Time | 2026-04-23 12:35 |
|---|---|
| Airport | Los Angeles International Airport (KLAX) |
Arrival
| Time | 2026-04-23 12:57 |
|---|---|
| Airport | San Diego International Airport (KSAN) |
| Time | Latitude | Longitude | Altitude | Speed | Heading |
|---|---|---|---|---|---|
| 2026-04-23 12:35 | 33.79045 | -118.22486 | 7740 ft | 299 kts | 141° |
| 2026-04-23 12:35 | 33.77427 | -118.20884 | 8359 ft | 304 kts | 141° |
| 2026-04-23 12:36 | 33.75784 | -118.19249 | 8983 ft | 309 kts | 141° |
| 2026-04-23 12:36 | 33.74119 | -118.17586 | 9576 ft | 313 kts | 142° |
| 2026-04-23 12:36 | 33.72428 | -118.15893 | 10179 ft | 318 kts | 142° |
| 2026-04-23 12:36 | 33.70688 | -118.14152 | 10502 ft | 334 kts | 142° |
| 2026-04-23 12:37 | 33.68843 | -118.12306 | 10667 ft | 355 kts | 142° |
| 2026-04-23 12:37 | 33.66887 | -118.10349 | 10846 ft | 377 kts | 142° |
| 2026-04-23 12:37 | 33.64843 | -118.08302 | 10978 ft | 398 kts | 142° |
| 2026-04-23 12:37 | 33.62693 | -118.06146 | 11059 ft | 407 kts | 142° |
| 2026-04-23 12:38 | 33.59736 | -118.03181 | 11069 ft | 418 kts | 142° |
| 2026-04-23 12:38 | 33.58251 | -118.01692 | 11081 ft | 420 kts | 142° |
| 2026-04-23 12:38 | 33.56014 | -117.99449 | 11064 ft | 418 kts | 142° |
| 2026-04-23 12:38 | 33.53780 | -117.97210 | 11061 ft | 416 kts | 142° |
| 2026-04-23 12:39 | 33.51558 | -117.94987 | 11062 ft | 415 kts | 142° |
| 2026-04-23 12:39 | 33.49337 | -117.92767 | 11063 ft | 414 kts | 142° |
| 2026-04-23 12:39 | 33.47124 | -117.90558 | 11067 ft | 414 kts | 142° |
| 2026-04-23 12:39 | 33.44938 | -117.88376 | 11070 ft | 414 kts | 142° |
| 2026-04-23 12:40 | 33.42717 | -117.86163 | 11052 ft | 415 kts | 142° |
| 2026-04-23 12:40 | 33.40498 | -117.83954 | 11069 ft | 415 kts | 142° |
| 2026-04-23 12:40 | 33.38277 | -117.81742 | 11071 ft | 416 kts | 142° |
| 2026-04-23 12:40 | 33.36048 | -117.79526 | 11071 ft | 416 kts | 142° |
| 2026-04-23 12:41 | 33.33823 | -117.77314 | 11065 ft | 417 kts | 142° |
| 2026-04-23 12:41 | 33.31584 | -117.75090 | 11078 ft | 418 kts | 142° |
| 2026-04-23 12:41 | 33.29344 | -117.72866 | 11076 ft | 418 kts | 142° |
| 2026-04-23 12:41 | 33.27138 | -117.70678 | 11076 ft | 418 kts | 142° |
| 2026-04-23 12:42 | 33.24886 | -117.68445 | 11085 ft | 419 kts | 142° |
| 2026-04-23 12:42 | 33.22647 | -117.66227 | 11075 ft | 418 kts | 142° |
| 2026-04-23 12:42 | 33.20400 | -117.64003 | 11083 ft | 418 kts | 142° |
| 2026-04-23 12:42 | 33.18167 | -117.61794 | 11083 ft | 418 kts | 142° |
| 2026-04-23 12:43 | 33.15937 | -117.59558 | 11083 ft | 418 kts | 140° |
| 2026-04-23 12:43 | 33.13915 | -117.57063 | 11073 ft | 418 kts | 132° |
| 2026-04-23 12:43 | 33.12029 | -117.54428 | 11084 ft | 417 kts | 132° |
| 2026-04-23 12:43 | 33.10162 | -117.51836 | 11085 ft | 418 kts | 132° |
| 2026-04-23 12:44 | 33.08261 | -117.49215 | 11079 ft | 418 kts | 132° |
| 2026-04-23 12:44 | 33.06358 | -117.46606 | 11057 ft | 415 kts | 133° |
| 2026-04-23 12:44 | 33.04476 | -117.44034 | 10949 ft | 407 kts | 133° |
| 2026-04-23 12:44 | 33.02633 | -117.41520 | 10804 ft | 399 kts | 133° |
| 2026-04-23 12:45 | 33.00817 | -117.39048 | 10535 ft | 392 kts | 133° |
| 2026-04-23 12:45 | 32.99049 | -117.36644 | 10472 ft | 379 kts | 133° |
| 2026-04-23 12:45 | 32.97375 | -117.34276 | 10172 ft | 371 kts | 126° |
| 2026-04-23 12:45 | 32.96063 | -117.31630 | 9731 ft | 370 kts | 117° |
| 2026-04-23 12:46 | 32.94953 | -117.28878 | 9286 ft | 370 kts | 113° |
| 2026-04-23 12:46 | 32.93965 | -117.26055 | 8846 ft | 369 kts | 111° |
| 2026-04-23 12:46 | 32.93023 | -117.23253 | 8421 ft | 369 kts | 111° |
| 2026-04-23 12:46 | 32.92074 | -117.20419 | 7988 ft | 368 kts | 111° |
| 2026-04-23 12:47 | 32.91128 | -117.17592 | 7538 ft | 368 kts | 111° |
| 2026-04-23 12:47 | 32.90177 | -117.14757 | 7115 ft | 367 kts | 111° |
| 2026-04-23 12:47 | 32.89229 | -117.11938 | 6707 ft | 366 kts | 111° |
| 2026-04-23 12:47 | 32.88374 | -117.09094 | 6257 ft | 363 kts | 105° |
| 2026-04-23 12:48 | 32.87688 | -117.06201 | 5820 ft | 362 kts | 103° |
| 2026-04-23 12:48 | 32.87043 | -117.03314 | 5379 ft | 361 kts | 103° |
| 2026-04-23 12:48 | 32.86404 | -117.00426 | 4941 ft | 360 kts | 103° |
| 2026-04-23 12:48 | 32.85811 | -116.97722 | 4525 ft | 359 kts | 103° |
| 2026-04-23 12:49 | 32.85198 | -116.94905 | 4026 ft | 341 kts | 103° |
| 2026-04-23 12:49 | 32.84612 | -116.92258 | 3549 ft | 321 kts | 108° |
| 2026-04-23 12:49 | 32.83572 | -116.90020 | 3192 ft | 299 kts | 134° |
| 2026-04-23 12:49 | 32.81962 | -116.88686 | 3078 ft | 269 kts | 161° |
| 2026-04-23 12:50 | 32.80228 | -116.88082 | 3079 ft | 252 kts | 166° |
| 2026-04-23 12:50 | 32.78594 | -116.87653 | 3049 ft | 239 kts | 178° |
| 2026-04-23 12:50 | 32.76961 | -116.87987 | 3102 ft | 240 kts | 205° |
| 2026-04-23 12:50 | 32.75450 | -116.88831 | 3096 ft | 238 kts | 207° |
| 2026-04-23 12:51 | 32.73999 | -116.89685 | 3066 ft | 230 kts | 208° |
| 2026-04-23 12:51 | 32.72575 | -116.90524 | 3126 ft | 225 kts | 208° |
| 2026-04-23 12:51 | 32.71186 | -116.91341 | 3102 ft | 222 kts | 208° |
| 2026-04-23 12:51 | 32.69818 | -116.92148 | 3083 ft | 217 kts | 208° |
| 2026-04-23 12:52 | 32.68497 | -116.93005 | 3064 ft | 215 kts | 222° |
| 2026-04-23 12:52 | 32.67658 | -116.94439 | 3099 ft | 216 kts | 256° |
| 2026-04-23 12:52 | 32.67614 | -116.96194 | 3099 ft | 212 kts | 282° |
| 2026-04-23 12:52 | 32.67953 | -116.97854 | 3118 ft | 202 kts | 286° |
| 2026-04-23 12:53 | 32.68318 | -116.99426 | 3084 ft | 193 kts | 286° |
| 2026-04-23 12:53 | 32.68689 | -117.00915 | 3069 ft | 189 kts | 288° |
| 2026-04-23 12:53 | 32.69070 | -117.02395 | 3107 ft | 184 kts | 288° |
| 2026-04-23 12:53 | 32.69444 | -117.03839 | 3051 ft | 178 kts | 288° |
| 2026-04-23 12:54 | 32.69804 | -117.05222 | 2840 ft | 178 kts | 288° |
| 2026-04-23 12:54 | 32.70185 | -117.06640 | 2566 ft | 177 kts | 288° |
| 2026-04-23 12:54 | 32.70561 | -117.08005 | 2306 ft | 174 kts | 288° |
| 2026-04-23 12:54 | 32.70936 | -117.09358 | 2090 ft | 174 kts | 288° |
| 2026-04-23 12:55 | 32.71320 | -117.10737 | 1688 ft | 177 kts | 287° |
| 2026-04-23 12:55 | 32.71678 | -117.12129 | 1202 ft | 175 kts | 286° |
| 2026-04-23 12:55 | 32.72018 | -117.13498 | 840 ft | 171 kts | 285° |
| 2026-04-23 12:55 | 32.72357 | -117.14849 | 594 ft | 171 kts | 285° |
| 2026-04-23 12:56 | 32.72682 | -117.16203 | 316 ft | 169 kts | 285° |
| 2026-04-23 12:56 | 32.73004 | -117.17540 | 89 ft | 168 kts | 285° |
| 2026-04-23 12:56 | 32.73317 | -117.18802 | 30 ft | 141 kts | 285° |
| 2026-04-23 12:56 | 32.73519 | -117.19624 | 33 ft | 50 kts | 286° |
| 2026-04-23 12:57 | 32.73606 | -117.19978 | 31 ft | 36 kts | 286° |
| 2026-04-23 12:57 | 32.73664 | -117.20225 | 28 ft | 30 kts | 284° |
| 2026-04-23 12:57 | 32.73662 | -117.20409 | 28 ft | 9 kts | 213° |
| 2026-04-23 12:57 | 32.73630 | -117.20422 | 25 ft | 0 kts | 191° |
| 2026-04-23 12:58 | 32.73629 | -117.20422 | 25 ft | 0 kts | 191° |
| 2026-04-23 12:59 | 32.73625 | -117.20423 | 25 ft | 6 kts | 191° |
| 2026-04-23 12:59 | 32.73569 | -117.20391 | 28 ft | 11 kts | 112° |
| 2026-04-23 13:00 | 32.73567 | -117.20249 | 29 ft | 9 kts | 90° |
| 2026-04-23 13:00 | 32.73533 | -117.20117 | 30 ft | 28 kts | 107° |
| 2026-04-23 13:00 | 32.73469 | -117.19854 | 32 ft | 25 kts | 105° |
| 2026-04-23 13:00 | 32.73412 | -117.19692 | 30 ft | 16 kts | 150° |
| 2026-04-23 13:01 | 32.73377 | -117.19661 | 30 ft | 6 kts | 145° |
| 2026-04-23 13:01 | 32.73343 | -117.19650 | 29 ft | 0 kts | 174° |